Pagina principale
METAR-TAF:

METAR-TAF

Aeroporti :

Aeroporto di Comiso

Comiso, Italia

latitudine: 36-59-30N, longitudine: 14-36-25E, altezza: 190 m

Osservazione

Il bollettino è stato emesso 6 ore e 54 minuti fa, alle 05:00 UTC
Vento 2 kt da direzioni variabili
Temperature 19°C
Umidità 94%
Pressione 1012 hPa
Visibilità 10 km o più
nessuna nube inferiore a 1500 m e nessun cumulonembo

METAR: LICB 210500Z VRB02KT CAVOK 19/18 Q1012

Ora: 13:54 (11:54 UTC)

Previsione

Il bollettino è stato emesso 6 ore e 54 minuti fa, alle 05:00 UTC
Previsione valida dal 21 alle 06 UTC al 21 alle 15 UTC
Vento 5 kt da direzioni variabili
Visibilità 10 km o più
Nubi sparse ad un'altezza di 3000 ft
Temporaneamente
dal 21 alle 12 UTC al 21 alle 15 UTC
temporale, pioggia

TAF: LICB 210500Z 2106/2115 VRB05KT 9999 SCT030 TEMPO 2112/2115 TSRA

Osservazioni e previsioni meteorologiche di più di 4000 aeroporti (messaggi METAR e TAF).

Le stazioni disponibili sono rappresentate dai dischi gialli e rossi sulla carta.

Puntare il mouse per vedere il nome della stazione.

Clicca sopra per visualizzare le osservazioni e previsioni meteorologiche.

Per cambiare la mappa : fare clic sui pulsanti verdi con una croce nera per ingrandire, il pulsante verde con un trattino per diminuire, o sulla freccia verde per le mappe adiacenti.


METAR-TAF: